Time;durP1;ratioP1;P1;durP2;ratioP2;P2;SDS_P1;SDS_P2;PMS_P1;PMS_P2;Temp;Humidity;BMP_temperature;BMP_pressure;BME280_temperature;BME280_humidity;BME280_pressure;Samples;Min_cycle;Max_cycle;Signal;HPM_P1;HPM_P2
2022/11/19 00:02:00;;;;;;;71.10;33.50;;;;;;;-3.83;75.15;98059.89;103640;1292;110742;-70
2022/11/19 00:04:28;;;;;;;67.80;32.90;;;;;;;-3.84;75.28;98067.52;103680;1298;95962;-70
2022/11/19 00:06:57;;;;;;;71.40;34.90;;;;;;;-3.85;75.19;98068.59;103626;1290;107639;-70
2022/11/19 00:09:25;;;;;;;69.90;34.60;;;;;;;-3.85;75.22;98074.16;103664;1299;98097;-70
2022/11/19 00:14:40;;;;;;;64.60;31.90;;;;;;;-3.91;75.27;98072.95;103465;1295;111290;-71
2022/11/19 00:17:08;;;;;;;62.00;31.50;;;;;;;-3.91;75.15;98068.95;103616;1288;95192;-71
2022/11/19 00:19:35;;;;;;;65.50;34.10;;;;;;;-3.91;75.17;98073.64;103457;1292;107467;-72
2022/11/19 00:22:03;;;;;;;64.50;33.00;;;;;;;-3.91;75.30;98072.08;103569;1292;97986;-71
2022/11/19 00:24:31;;;;;;;58.30;29.90;;;;;;;-3.90;75.32;98071.53;103593;1290;98785;-70
2022/11/19 00:26:59;;;;;;;65.20;31.40;;;;;;;-3.92;75.14;98075.92;103470;1291;111492;-70
2022/11/19 00:29:27;;;;;;;64.50;30.70;;;;;;;-3.93;75.24;98079.07;103614;1298;97929;-68
2022/11/19 00:31:56;;;;;;;68.20;31.30;;;;;;;-3.93;75.32;98090.84;103594;1292;107465;-69
2022/11/19 00:34:24;;;;;;;61.00;32.60;;;;;;;-3.95;75.15;98099.20;103601;1298;95189;-69
2022/11/19 00:36:51;;;;;;;63.40;32.40;;;;;;;-3.94;75.06;98099.02;103431;1298;98532;-70
2022/11/19 00:39:19;;;;;;;62.50;31.40;;;;;;;-3.98;75.09;98099.98;103577;1290;111543;-70
2022/11/19 00:41:49;;;;;;;62.70;32.20;;;;;;;-3.99;75.16;98101.05;103677;1284;99490;-69
2022/11/19 00:44:17;;;;;;;64.70;30.20;;;;;;;-3.98;75.10;98102.77;103569;1296;108056;-72
2022/11/19 00:46:44;;;;;;;65.00;32.40;;;;;;;-3.99;75.28;98108.33;103655;1283;98072;-70
2022/11/19 00:49:12;;;;;;;57.90;29.30;;;;;;;-3.98;75.09;98113.16;103435;1299;95200;-69
2022/11/19 00:51:40;;;;;;;58.50;28.60;;;;;;;-3.97;75.35;98111.20;103601;1288;110064;-69
2022/11/19 00:54:08;;;;;;;62.90;31.20;;;;;;;-3.97;75.21;98113.98;103621;1295;97842;-70
2022/11/19 00:56:36;;;;;;;62.80;29.70;;;;;;;-3.96;75.42;98116.06;103582;1291;107588;-70
2022/11/19 00:59:04;;;;;;;60.90;30.10;;;;;;;-3.95;75.35;98118.43;103511;1298;95214;-71
2022/11/19 01:01:33;;;;;;;59.40;28.90;;;;;;;-3.91;75.42;98113.63;103626;1297;97888;-71
2022/11/19 01:04:01;;;;;;;62.00;30.60;;;;;;;-3.88;75.40;98119.80;103439;1295;111127;-71
2022/11/19 01:06:29;;;;;;;61.10;31.80;;;;;;;-3.86;75.26;98122.50;103585;1297;97702;-70
2022/11/19 01:08:57;;;;;;;60.90;30.00;;;;;;;-3.85;75.35;98113.31;103622;1294;107202;-69
2022/11/19 01:11:30;;;;;;;57.60;29.70;;;;;;;-3.83;75.44;98114.80;103625;1296;97889;-70
2022/11/19 01:14:00;;;;;;;60.40;30.40;;;;;;;-3.80;75.50;98115.58;103585;1297;98567;-71
2022/11/19 01:16:34;;;;;;;60.40;29.90;;;;;;;-3.75;75.46;98112.84;103493;1291;111238;-70
2022/11/19 01:19:05;;;;;;;58.50;30.30;;;;;;;-3.71;75.38;98113.23;103702;1291;97946;-70
2022/11/19 01:21:35;;;;;;;57.30;29.20;;;;;;;-3.69;75.39;98116.98;103582;1291;107184;-70
2022/11/19 01:24:04;;;;;;;62.10;31.20;;;;;;;-3.67;75.33;98111.71;103615;1299;98098;-71
2022/11/19 01:26:32;;;;;;;58.40;29.10;;;;;;;-3.66;75.40;98110.47;103644;1296;95179;-69
2022/11/19 01:29:00;;;;;;;60.70;30.10;;;;;;;-3.64;75.46;98115.45;103607;1290;111109;-69
2022/11/19 01:31:29;;;;;;;58.40;29.70;;;;;;;-3.62;75.40;98116.74;103570;1297;96580;-69
2022/11/19 01:33:57;;;;;;;55.10;28.70;;;;;;;-3.59;75.53;98114.92;103592;1295;107663;-70
2022/11/19 01:36:28;;;;;;;62.20;31.20;;;;;;;-3.54;75.55;98113.95;103627;1298;95176;-70
2022/11/19 01:38:57;;;;;;;58.10;28.50;;;;;;;-3.52;75.63;98111.63;103653;1299;97896;-72
2022/11/19 01:41:31;;;;;;;57.50;27.70;;;;;;;-3.51;75.53;98108.64;103673;1298;111121;-70
2022/11/19 01:44:04;;;;;;;54.00;28.90;;;;;;;-3.49;75.59;98111.70;103460;1303;98538;-70
2022/11/19 01:46:36;;;;;;;58.80;30.20;;;;;;;-3.48;75.50;98098.32;103674;1291;106297;-70
2022/11/19 01:49:15;;;;;;;57.30;27.60;;;;;;;-3.46;75.61;98107.61;103620;1295;97871;-69
2022/11/19 01:52:01;;;;;;;56.60;27.60;;;;;;;-3.44;75.55;98122.81;103681;1295;97889;-70
2022/11/19 01:54:46;;;;;;;56.60;28.80;;;;;;;-3.42;75.53;98130.56;103669;1281;111021;-69
2022/11/19 01:57:17;;;;;;;54.70;28.60;;;;;;;-3.41;75.74;98134.51;103588;1297;95167;-69
2022/11/19 01:59:50;;;;;;;53.30;26.30;;;;;;;-3.40;75.62;98133.27;103704;1294;107495;-73
2022/11/19 02:02:21;;;;;;;60.10;30.30;;;;;;;-3.37;75.52;98133.67;103535;1300;96938;-70
2022/11/19 02:04:51;;;;;;;58.90;29.20;;;;;;;-3.36;75.55;98132.44;103684;1298;97871;-69
2022/11/19 02:07:25;;;;;;;55.20;26.90;;;;;;;-3.36;75.38;98133.50;103706;1291;110702;-69
2022/11/19 02:09:55;;;;;;;63.00;31.10;;;;;;;-3.37;75.51;98136.30;103571;1297;95124;-69
2022/11/19 02:12:45;;;;;;;58.20;29.60;;;;;;;-3.37;75.40;98143.21;103662;1297;107562;-70
2022/11/19 02:15:26;;;;;;;55.60;29.20;;;;;;;-3.37;75.48;98142.70;103646;1298;98005;-70
2022/11/19 02:18:23;;;;;;;57.70;28.60;;;;;;;-3.36;75.54;98133.48;103631;1297;97837;-69
2022/11/19 02:21:06;;;;;;;56.40;27.60;;;;;;;-3.34;75.63;98132.73;103661;1295;110825;-70
2022/11/19 02:24:07;;;;;;;54.90;27.80;;;;;;;-3.31;75.70;98130.91;103682;1299;97973;-70
2022/11/19 02:26:47;;;;;;;55.70;28.50;;;;;;;-3.27;75.70;98137.20;103678;1298;107564;-71
2022/11/19 02:29:30;;;;;;;57.30;28.00;;;;;;;-3.23;75.75;98142.45;103673;1298;97852;-70
2022/11/19 02:32:11;;;;;;;56.20;27.60;;;;;;;-3.20;75.82;98158.64;103739;1297;97835;-70
2022/11/19 02:34:57;;;;;;;57.70;29.00;;;;;;;-3.18;75.67;98164.48;103658;1296;110083;-69
2022/11/19 02:37:46;;;;;;;57.20;28.90;;;;;;;-3.20;75.56;98158.48;103659;1289;95567;-70
2022/11/19 02:40:27;;;;;;;53.60;27.40;;;;;;;-3.19;75.69;98166.06;103650;1294;107412;-69
2022/11/19 02:43:23;;;;;;;53.90;28.50;;;;;;;-3.15;75.68;98179.83;103642;1299;96194;-68
2022/11/19 02:46:04;;;;;;;53.70;28.90;;;;;;;-3.11;75.80;98185.95;103638;1299;97860;-69
2022/11/19 02:48:37;;;;;;;55.40;28.90;;;;;;;-3.07;75.91;98187.55;103659;1287;111107;-68
2022/11/19 02:51:07;;;;;;;55.30;28.00;;;;;;;-3.03;75.91;98187.25;103690;1296;98408;-69
2022/11/19 02:53:35;;;;;;;57.20;27.50;;;;;;;-3.00;75.82;98187.68;103694;1299;107591;-70
2022/11/19 02:56:16;;;;;;;54.90;28.70;;;;;;;-2.96;75.91;98192.25;103633;1305;97853;-71
2022/11/19 03:04:32;;;;;;;59.00;28.20;;;;;;;-2.86;75.87;98193.48;103668;1296;97966;-70
2022/11/19 03:07:09;;;;;;;54.60;29.10;;;;;;;-2.86;75.97;98201.45;103600;1296;107770;-69
2022/11/19 03:09:43;;;;;;;55.40;27.90;;;;;;;-2.84;75.90;98198.45;103570;1296;97979;-69
2022/11/19 03:12:34;;;;;;;;;;;;;;;-2.83;75.92;98206.23;103479;1298;95234;-69
2022/11/19 03:18:18;;;;;;;50.90;26.60;;;;;;;-2.86;75.86;98216.73;103644;1275;97977;-69
2022/11/19 03:20:55;;;;;;;51.00;25.20;;;;;;;-2.84;76.00;98215.45;103595;1291;107562;-70
2022/11/19 03:23:30;;;;;;;50.80;26.70;;;;;;;-2.81;76.05;98223.69;103588;1301;97942;-69
2022/11/19 03:26:22;;;;;;;54.80;29.20;;;;;;;-2.79;75.87;98229.34;103607;1295;97872;-70
2022/11/19 03:28:52;;;;;;;50.70;24.80;;;;;;;-2.79;75.98;98216.52;103666;1296;111088;-70
2022/11/19 03:31:23;;;;;;;51.20;26.80;;;;;;;-2.77;75.98;98219.41;103700;1299;97775;-69
2022/11/19 03:33:54;;;;;;;48.70;25.60;;;;;;;-2.74;76.04;98216.20;103570;1297;107389;-69
2022/11/19 03:36:30;;;;;;;51.00;25.50;;;;;;;-2.71;76.01;98219.04;103673;1296;98432;-68
2022/11/19 03:39:06;;;;;;;49.80;25.40;;;;;;;-2.69;76.13;98223.33;103703;1298;95375;-69
2022/11/19 03:41:38;;;;;;;55.10;27.30;;;;;;;-2.65;76.18;98227.86;103533;1297;111295;-70
2022/11/19 03:44:19;;;;;;;50.80;26.00;;;;;;;-2.63;76.07;98231.45;103639;1302;98426;-70
2022/11/19 03:46:56;;;;;;;50.50;25.00;;;;;;;-2.63;76.06;98241.53;103685;1298;107494;-69
2022/11/19 03:49:32;;;;;;;47.20;23.40;;;;;;;-2.63;76.08;98254.00;103732;1295;97866;-69
2022/11/19 03:52:09;;;;;;;47.50;24.70;;;;;;;-2.62;76.03;98249.98;103661;1297;97882;-69
2022/11/19 03:54:39;;;;;;;47.10;25.40;;;;;;;-2.60;76.11;98253.05;103661;1295;111771;-69
2022/11/19 03:57:10;;;;;;;48.90;23.60;;;;;;;-2.60;76.03;98248.36;103644;1289;97795;-70
2022/11/19 03:59:38;;;;;;;46.10;23.50;;;;;;;-2.58;76.09;98260.63;103615;1292;107170;-70
2022/11/19 04:02:09;;;;;;;48.40;26.70;;;;;;;-2.58;76.00;98268.10;103598;1298;97854;-71
2022/11/19 04:04:37;;;;;;;47.40;25.20;;;;;;;-2.58;76.09;98274.66;103613;1289;97965;-70
2022/11/19 04:07:14;;;;;;;47.60;24.60;;;;;;;-2.54;76.08;98284.45;103601;1298;111196;-69
2022/11/19 04:09:43;;;;;;;48.00;25.40;;;;;;;-2.53;76.01;98281.82;103495;1291;95243;-73
2022/11/19 04:12:15;;;;;;;49.50;26.10;;;;;;;-2.52;76.10;98284.57;103620;1295;107396;-70
2022/11/19 04:14:44;;;;;;;50.80;25.90;;;;;;;-2.51;76.18;98297.36;103438;1298;98299;-70
2022/11/19 04:17:13;;;;;;;44.40;23.00;;;;;;;-2.49;76.13;98300.63;103679;1290;98975;-70
2022/11/19 04:19:41;;;;;;;50.80;27.40;;;;;;;-2.48;76.29;98299.39;103652;1298;110919;-69
2022/11/19 04:22:09;;;;;;;49.50;26.60;;;;;;;-2.45;76.36;98305.70;103626;1291;97897;-70
2022/11/19 04:24:37;;;;;;;44.80;22.70;;;;;;;-2.43;76.32;98308.41;103610;1291;106075;-69
2022/11/19 04:27:05;;;;;;;47.10;25.80;;;;;;;-2.44;76.24;98304.80;103623;1290;97968;-69
2022/11/19 04:29:32;;;;;;;45.00;22.40;;;;;;;-2.45;76.06;98308.12;103443;1305;97881;-69
2022/11/19 04:32:00;;;;;;;40.90;21.60;;;;;;;-2.44;76.06;98305.33;103617;1290;110842;-69
2022/11/19 04:34:28;;;;;;;43.10;22.90;;;;;;;-2.44;76.18;98305.85;103629;1290;95098;-70
2022/11/19 04:36:56;;;;;;;42.10;22.00;;;;;;;-2.45;76.22;98309.52;103610;1295;108308;-70
2022/11/19 04:39:24;;;;;;;43.80;22.40;;;;;;;-2.43;76.13;98310.85;103599;1301;97826;-70
2022/11/19 04:41:52;;;;;;;41.90;22.00;;;;;;;-2.41;76.17;98311.80;103587;1299;97822;-68
2022/11/19 04:44:20;;;;;;;43.50;21.80;;;;;;;-2.38;76.10;98313.83;103380;1297;126989;-69
2022/11/19 04:46:48;;;;;;;45.70;24.40;;;;;;;-2.36;76.32;98318.95;103599;1291;97838;-69
2022/11/19 04:49:16;;;;;;;42.30;22.90;;;;;;;-2.34;76.20;98314.04;103559;1298;108069;-69
2022/11/19 04:51:45;;;;;;;41.10;23.30;;;;;;;-2.32;76.15;98320.76;103419;1298;97991;-69
2022/11/19 04:54:13;;;;;;;39.20;21.30;;;;;;;-2.31;76.22;98320.35;103653;1299;97967;-69
2022/11/19 04:56:41;;;;;;;38.10;20.10;;;;;;;-2.30;76.16;98324.15;103600;1292;112124;-69
2022/11/19 04:59:09;;;;;;;37.30;19.60;;;;;;;-2.28;76.29;98324.45;103664;1292;97963;-69
2022/11/19 05:01:37;;;;;;;38.00;20.90;;;;;;;-2.27;76.29;98328.05;103606;1290;107525;-70
2022/11/19 05:04:05;;;;;;;38.50;19.40;;;;;;;-2.26;76.11;98333.77;103637;1296;97947;-69
2022/11/19 05:06:33;;;;;;;39.20;19.50;;;;;;;-2.26;76.29;98341.21;103668;1299;97819;-69
2022/11/19 05:09:01;;;;;;;37.50;20.50;;;;;;;-2.25;76.25;98341.36;103666;1297;111279;-69
2022/11/19 05:11:29;;;;;;;38.10;20.00;;;;;;;-2.25;76.17;98341.52;103656;1291;97818;-70
2022/11/19 05:13:57;;;;;;;40.80;20.80;;;;;;;-2.25;76.14;98342.89;103645;1298;107471;-69
2022/11/19 05:16:25;;;;;;;36.20;19.50;;;;;;;-2.24;76.15;98347.23;103635;1299;97857;-69
2022/11/19 05:18:53;;;;;;;38.70;21.00;;;;;;;-2.24;76.17;98351.92;103695;1291;95170;-70
2022/11/19 05:21:21;;;;;;;34.70;19.00;;;;;;;-2.24;76.13;98361.48;103606;1297;111125;-70
2022/11/19 05:23:49;;;;;;;38.10;20.50;;;;;;;-2.24;76.11;98360.95;103639;1296;95179;-69
2022/11/19 05:26:16;;;;;;;35.00;18.60;;;;;;;-2.27;76.13;98365.56;103583;1291;107452;-69
2022/11/19 05:28:45;;;;;;;36.30;19.50;;;;;;;-2.32;76.14;98366.94;103407;1298;97952;-69
2022/11/19 05:31:13;;;;;;;38.10;20.30;;;;;;;-2.32;76.21;98368.14;103725;1291;95219;-68
2022/11/19 05:33:41;;;;;;;37.00;19.50;;;;;;;-2.31;76.21;98363.44;103668;1291;111381;-69
2022/11/19 05:36:09;;;;;;;48.90;23.70;;;;;;;-2.29;76.13;98373.42;103700;1290;97922;-69
2022/11/19 05:38:37;;;;;;;54.50;26.50;;;;;;;-2.28;76.11;98376.01;103713;1292;108181;-69
2022/11/19 05:41:05;;;;;;;49.70;26.10;;;;;;;-2.27;76.24;98383.98;103643;1292;97992;-71
2022/11/19 05:43:33;;;;;;;44.50;22.40;;;;;;;-2.31;76.00;98390.20;103679;1298;98023;-71
2022/11/19 05:46:02;;;;;;;39.10;19.70;;;;;;;-2.33;75.94;98400.31;103464;1298;111589;-69
2022/11/19 05:48:30;;;;;;;39.00;18.90;;;;;;;-2.33;76.19;98409.34;103457;1298;97926;-72
2022/11/19 05:50:58;;;;;;;35.20;18.90;;;;;;;-2.34;76.06;98412.14;103659;1296;107097;-70
2022/11/19 05:53:26;;;;;;;35.30;18.20;;;;;;;-2.37;76.07;98413.27;103637;1291;95190;-70
2022/11/19 05:55:54;;;;;;;35.70;18.20;;;;;;;-2.41;76.05;98413.91;103678;1297;98924;-71
2022/11/19 05:58:22;;;;;;;34.70;16.30;;;;;;;-2.41;76.11;98417.02;103672;1295;110737;-70
2022/11/19 06:00:54;;;;;;;33.10;17.60;;;;;;;-2.40;76.10;98420.15;103699;1290;97897;-70
2022/11/19 06:03:22;;;;;;;34.10;17.70;;;;;;;-2.38;76.07;98424.27;103616;1289;107143;-70
2022/11/19 06:05:51;;;;;;;34.00;17.80;;;;;;;-2.39;76.18;98430.88;103668;1294;97876;-70
2022/11/19 06:08:19;;;;;;;33.80;17.90;;;;;;;-2.40;76.15;98426.20;103706;1291;97866;-70
2022/11/19 06:10:47;;;;;;;35.10;17.90;;;;;;;-2.37;76.20;98431.86;103634;1291;111116;-71
2022/11/19 06:13:14;;;;;;;34.90;18.20;;;;;;;-2.35;76.09;98438.91;103674;1298;97983;-71
2022/11/19 06:15:42;;;;;;;34.80;17.50;;;;;;;-2.33;76.14;98443.71;103608;1292;107555;-70
2022/11/19 06:18:10;;;;;;;35.10;17.90;;;;;;;-2.30;76.07;98446.77;103608;1289;97995;-68
2022/11/19 06:20:38;;;;;;;32.80;17.20;;;;;;;-2.28;76.20;98448.79;103610;1283;96315;-67
2022/11/19 06:23:05;;;;;;;32.70;17.10;;;;;;;-2.25;76.18;98452.02;103648;1289;111840;-68
2022/11/19 06:25:33;;;;;;;33.00;18.20;;;;;;;-2.23;76.18;98451.92;103645;1297;97871;-69
2022/11/19 06:28:01;;;;;;;36.50;19.10;;;;;;;-2.21;76.16;98456.90;103647;1298;107428;-72
2022/11/19 06:30:29;;;;;;;35.40;18.20;;;;;;;-2.19;76.23;98453.38;103629;1295;95185;-74
2022/11/19 06:32:57;;;;;;;38.90;19.50;;;;;;;-2.17;76.16;98453.52;103712;1298;95874;-72
2022/11/19 06:35:25;;;;;;;39.10;20.40;;;;;;;-2.15;76.18;98458.98;103656;1290;111129;-74
2022/11/19 06:37:53;;;;;;;36.00;19.90;;;;;;;-2.13;76.17;98466.40;103633;1298;97877;-72
2022/11/19 06:40:20;;;;;;;35.50;18.80;;;;;;;-2.11;76.11;98468.77;103720;1292;107560;-72
2022/11/19 06:42:48;;;;;;;35.10;19.00;;;;;;;-2.08;76.11;98475.64;103699;1298;97821;-72
2022/11/19 06:45:18;;;;;;;36.90;17.70;;;;;;;-2.07;76.22;98476.99;103659;1291;96369;-72
2022/11/19 06:47:47;;;;;;;35.70;19.50;;;;;;;-2.05;76.14;98484.75;103572;1291;110814;-73
2022/11/19 06:50:16;;;;;;;38.70;19.60;;;;;;;-2.03;76.26;98488.17;103612;1297;97948;-73
2022/11/19 06:52:45;;;;;;;38.70;18.70;;;;;;;-2.06;76.19;98495.91;103661;1297;107490;-73
2022/11/19 06:55:13;;;;;;;33.80;19.60;;;;;;;-2.10;76.05;98505.59;103615;1292;95218;-71
2022/11/19 06:57:41;;;;;;;36.30;18.80;;;;;;;-2.11;76.03;98508.73;103594;1298;96479;-71
2022/11/19 07:00:11;;;;;;;39.40;20.20;;;;;;;-2.11;76.11;98510.46;103551;1297;110162;-70
2022/11/19 07:02:39;;;;;;;35.50;18.90;;;;;;;-2.11;76.16;98507.35;103659;1291;97960;-72
2022/11/19 07:05:08;;;;;;;36.50;19.10;;;;;;;-2.11;76.04;98508.03;103580;1300;107178;-71
2022/11/19 07:07:36;;;;;;;37.10;18.50;;;;;;;-2.15;75.94;98515.29;103380;1304;98223;-72
2022/11/19 07:10:06;;;;;;;33.30;17.70;;;;;;;-2.21;75.98;98521.20;103540;1290;95192;-70
2022/11/19 07:12:34;;;;;;;34.70;18.60;;;;;;;-2.19;75.91;98522.16;104219;1290;110121;-75
2022/11/19 07:15:02;;;;;;;33.10;16.50;;;;;;;-2.17;75.94;98520.02;103515;1297;98034;-74
2022/11/19 07:17:31;;;;;;;35.10;18.90;;;;;;;-2.16;76.11;98520.16;103525;1290;107167;-69
2022/11/19 07:20:00;;;;;;;31.20;16.20;;;;;;;-2.17;76.03;98521.77;103400;1302;98013;-69
2022/11/19 07:22:27;;;;;;;31.90;15.90;;;;;;;-2.17;75.87;98526.30;103505;1291;95109;-70
2022/11/19 07:24:55;;;;;;;33.20;16.10;;;;;;;-2.18;75.97;98532.05;103498;1291;111184;-72
2022/11/19 07:27:23;;;;;;;33.80;17.50;;;;;;;-2.16;75.93;98535.10;103510;1275;98192;-71
2022/11/19 07:29:51;;;;;;;31.30;15.90;;;;;;;-2.15;76.00;98536.29;103515;1291;107167;-71
2022/11/19 07:32:19;;;;;;;29.40;15.70;;;;;;;-2.16;76.05;98539.98;103460;1298;97897;-71
2022/11/19 07:34:46;;;;;;;28.80;14.80;;;;;;;-2.16;75.98;98541.36;103584;1292;97950;-71
2022/11/19 07:37:14;;;;;;;30.40;15.60;;;;;;;-2.16;75.80;98542.39;103603;1297;111008;-73
2022/11/19 07:39:42;;;;;;;33.70;15.70;;;;;;;-2.18;75.82;98547.86;103671;1292;97918;-74
2022/11/19 07:44:56;;;;;;;33.80;17.10;;;;;;;-2.20;75.88;98561.63;103623;1291;97812;-72
2022/11/19 07:47:24;;;;;;;36.40;17.20;;;;;;;-2.20;75.94;98568.94;103596;1296;97865;-73
2022/11/19 07:49:53;;;;;;;35.60;17.30;;;;;;;-2.21;75.89;98575.23;103612;1297;111143;-72
2022/11/19 07:52:21;;;;;;;32.60;16.90;;;;;;;-2.20;76.03;98574.49;103612;1298;97965;-72
2022/11/19 07:54:48;;;;;;;32.20;17.00;;;;;;;-2.20;75.80;98573.42;103647;1298;107447;-71
2022/11/19 07:57:16;;;;;;;36.40;17.90;;;;;;;-2.24;75.82;98577.38;103633;1298;98503;-71
2022/11/19 07:59:44;;;;;;;34.60;17.90;;;;;;;-2.27;75.79;98580.77;103593;1291;95244;-70
2022/11/19 08:02:13;;;;;;;34.50;17.20;;;;;;;-2.24;75.85;98589.88;103615;1297;111121;-71
2022/11/19 08:04:42;;;;;;;36.10;18.10;;;;;;;-2.19;76.06;98586.96;103622;1291;97955;-70
2022/11/19 08:07:10;;;;;;;37.60;18.80;;;;;;;-2.15;76.00;98592.41;103573;1291;108252;-69
2022/11/19 08:09:38;;;;;;;39.00;20.20;;;;;;;-2.12;76.00;98593.01;103636;1290;97888;-70
2022/11/19 08:12:06;;;;;;;35.40;17.50;;;;;;;-2.08;75.94;98592.55;103638;1297;98424;-72
2022/11/19 08:14:34;;;;;;;36.90;19.00;;;;;;;-2.03;75.87;98597.97;103580;1282;111253;-70
2022/11/19 08:19:48;;;;;;;34.50;19.10;;;;;;;-1.97;75.80;98597.79;103597;1282;106729;-70
2022/11/19 08:22:16;;;;;;;38.40;18.00;;;;;;;-1.96;75.99;98601.44;103598;1297;97902;-70
2022/11/19 08:24:44;;;;;;;36.90;19.00;;;;;;;-1.98;75.89;98604.41;103645;1299;97968;-72
2022/11/19 08:27:12;;;;;;;34.40;18.20;;;;;;;-1.96;75.90;98600.54;103648;1292;111159;-71
2022/11/19 08:29:40;;;;;;;32.80;17.30;;;;;;;-1.92;75.84;98602.88;103687;1296;95530;-72
2022/11/19 08:32:08;;;;;;;33.80;18.00;;;;;;;-1.88;75.75;98604.34;103652;1291;107444;-71
2022/11/19 08:34:35;;;;;;;37.30;19.00;;;;;;;-1.84;75.78;98602.29;103639;1292;98160;-72
2022/11/19 08:37:05;;;;;;;34.50;18.60;;;;;;;-1.78;75.73;98606.45;103638;1290;97873;-69
2022/11/19 08:39:32;;;;;;;34.90;18.70;;;;;;;-1.73;75.83;98606.34;103675;1291;110701;-70
2022/11/19 08:44:47;;;;;;;33.90;17.80;;;;;;;-1.69;75.78;98613.15;103638;1291;108129;-69
2022/11/19 08:47:16;;;;;;;31.80;15.90;;;;;;;-1.65;75.62;98617.20;103615;1289;97906;-69
2022/11/19 08:49:43;;;;;;;31.40;17.20;;;;;;;-1.60;75.69;98615.67;103635;1289;97863;-68
2022/11/19 08:52:13;;;;;;;32.60;15.70;;;;;;;-1.56;75.74;98610.31;103641;1282;111781;-70
2022/11/19 08:54:40;;;;;;;32.30;16.10;;;;;;;-1.51;75.64;98610.17;103684;1295;97966;-70
2022/11/19 08:57:08;;;;;;;72.20;38.50;;;;;;;-1.46;75.55;98612.11;103637;1295;107103;-70
2022/11/19 08:59:36;;;;;;;41.00;20.90;;;;;;;-1.37;76.04;98613.05;103668;1292;98050;-72
2022/11/19 09:02:05;;;;;;;30.50;16.70;;;;;;;-1.30;75.81;98613.71;103653;1295;95281;-70
2022/11/19 09:04:33;;;;;;;31.20;16.10;;;;;;;-1.26;75.92;98615.83;103624;1291;110759;-69
2022/11/19 09:07:01;;;;;;;33.40;17.00;;;;;;;-1.19;75.52;98611.94;103491;1295;97875;-71
2022/11/19 09:09:29;;;;;;;31.10;16.80;;;;;;;-1.10;75.48;98606.11;103591;1291;107531;-70
2022/11/19 09:11:57;;;;;;;29.60;15.20;;;;;;;-1.00;75.67;98612.56;103558;1299;98357;-70
2022/11/19 09:14:25;;;;;;;31.60;15.60;;;;;;;-0.90;75.70;98618.67;103673;1288;95250;-72
2022/11/19 09:16:54;;;;;;;31.10;16.50;;;;;;;-0.78;75.53;98619.84;103555;1294;111693;-70
2022/11/19 09:19:22;;;;;;;31.40;16.30;;;;;;;-0.71;75.60;98618.95;103646;1289;98021;-69
2022/11/19 09:21:50;;;;;;;30.40;15.50;;;;;;;-0.69;75.55;98620.61;103609;1297;107446;-69
2022/11/19 09:24:17;;;;;;;29.00;16.00;;;;;;;-0.66;75.43;98621.02;103606;1299;98645;-71
2022/11/19 09:26:46;;;;;;;30.60;16.10;;;;;;;-0.60;75.44;98624.13;103649;1292;97952;-72
2022/11/19 09:29:20;;;;;;;29.10;15.10;;;;;;;-0.54;75.53;98622.89;103580;1299;111123;-69
2022/11/19 09:31:47;;;;;;;29.80;15.00;;;;;;;-0.47;75.56;98620.89;103376;1294;97934;-69
2022/11/19 09:34:15;;;;;;;32.60;16.30;;;;;;;-0.36;75.63;98621.38;103570;1299;107819;-71
2022/11/19 09:36:44;;;;;;;30.00;15.90;;;;;;;-0.28;75.85;98618.49;103581;1298;98061;-71
2022/11/19 09:39:12;;;;;;;30.20;15.40;;;;;;;-0.23;75.76;98627.91;103487;1286;98615;-70
2022/11/19 09:41:46;;;;;;;31.20;14.60;;;;;;;-0.22;75.48;98633.45;103621;1289;110822;-72
2022/11/19 09:44:48;;;;;;;28.10;14.20;;;;;;;-0.29;75.87;98643.27;103594;1292;97981;-71
2022/11/19 09:47:31;;;;;;;27.40;14.00;;;;;;;-0.43;75.25;98642.02;103601;1291;107540;-69
2022/11/19 09:50:18;;;;;;;26.50;13.90;;;;;;;-0.47;75.41;98644.41;103595;1291;97975;-72
2022/11/19 09:53:13;;;;;;;27.60;14.90;;;;;;;-0.58;74.86;98640.43;103627;1295;95096;-71
2022/11/19 09:55:45;;;;;;;30.50;16.10;;;;;;;-0.69;75.29;98642.20;103588;1289;111079;-70
2022/11/19 09:58:21;;;;;;;27.40;14.80;;;;;;;-0.67;75.34;98644.90;103582;1282;96282;-70
2022/11/19 10:00:49;;;;;;;27.90;14.90;;;;;;;-0.64;75.55;98642.71;103639;1291;107242;-71
2022/11/19 10:03:21;;;;;;;28.60;16.00;;;;;;;-0.66;75.07;98642.95;103620;1299;97894;-68
2022/11/19 10:05:58;;;;;;;30.70;16.10;;;;;;;-0.67;75.38;98642.11;103455;1292;96293;-69
2022/11/19 10:08:45;;;;;;;29.80;15.90;;;;;;;-0.67;75.56;98645.61;103614;1292;111120;-69
2022/11/19 10:11:57;;;;;;;29.20;15.70;;;;;;;-0.64;75.36;98648.81;103612;1297;95231;-70
2022/11/19 10:14:42;;;;;;;29.30;15.40;;;;;;;-0.64;75.44;98647.60;103603;1297;107274;-69
2022/11/19 10:17:32;;;;;;;28.90;15.00;;;;;;;-0.66;75.24;98654.13;103658;1288;97848;-69
2022/11/19 10:20:26;;;;;;;27.90;14.50;;;;;;;-0.68;75.27;98660.80;103702;1291;97894;-69
2022/11/19 10:23:09;;;;;;;28.80;14.70;;;;;;;-0.71;75.35;98668.55;103644;1291;111679;-68
2022/11/19 10:25:47;;;;;;;28.70;14.30;;;;;;;-0.70;75.60;98673.39;103634;1291;95134;-69
2022/11/19 10:28:26;;;;;;;26.20;13.90;;;;;;;-0.72;75.32;98679.37;103596;1298;108117;-67
2022/11/19 10:31:06;;;;;;;28.00;14.60;;;;;;;-0.73;75.13;98685.85;103554;1297;97990;-67
2022/11/19 10:34:01;;;;;;;28.40;14.90;;;;;;;-0.75;75.13;98688.19;103602;1291;97869;-69
2022/11/19 10:36:41;;;;;;;31.70;15.10;;;;;;;-0.82;74.91;98692.06;103631;1298;111632;-67
2022/11/19 10:39:17;;;;;;;30.70;16.00;;;;;;;-0.86;75.11;98692.73;103590;1299;97884;-69
2022/11/19 10:41:54;;;;;;;29.60;15.40;;;;;;;-0.91;74.98;98698.77;103629;1298;108143;-68
2022/11/19 10:44:36;;;;;;;30.50;15.40;;;;;;;-0.93;75.10;98697.99;103549;1282;97895;-68
2022/11/19 10:47:25;;;;;;;30.60;16.40;;;;;;;-0.93;74.87;98701.27;103471;1291;95188;-69
2022/11/19 10:49:55;;;;;;;30.90;16.20;;;;;;;-0.92;74.94;98700.41;103555;1290;111403;-68
2022/11/19 10:52:38;;;;;;;31.30;16.60;;;;;;;-0.88;75.11;98698.55;103629;1295;98323;-67
2022/11/19 10:55:32;;;;;;;32.30;17.00;;;;;;;-0.91;75.04;98697.40;103656;1291;108118;-68
2022/11/19 10:58:11;;;;;;;32.30;16.80;;;;;;;-0.89;75.01;98696.81;103628;1291;96331;-70
2022/11/19 11:00:41;;;;;;;31.10;16.90;;;;;;;-0.84;74.98;98692.31;103677;1291;95115;-71
2022/11/19 11:03:26;;;;;;;29.10;16.50;;;;;;;-0.81;75.01;98691.66;103643;1282;112405;-70
2022/11/19 11:06:05;;;;;;;32.30;16.20;;;;;;;-0.76;75.12;98690.13;103502;1294;97965;-68
2022/11/19 11:08:48;;;;;;;33.10;17.50;;;;;;;-0.79;74.79;98686.02;103355;1295;107994;-68
2022/11/19 11:17:24;;;;;;;30.30;16.40;;;;;;;-0.63;75.11;98679.60;103523;1298;111574;-69
2022/11/19 11:20:00;;;;;;;31.20;17.90;;;;;;;-0.59;74.99;98679.64;103624;1289;95118;-69
2022/11/19 11:22:30;;;;;;;31.90;16.30;;;;;;;-0.56;75.04;98681.11;103582;1282;107970;-66
2022/11/19 11:25:00;;;;;;;32.70;16.70;;;;;;;-0.53;74.87;98680.13;103510;1299;97760;-66
2022/11/19 11:27:34;;;;;;;29.90;15.70;;;;;;;-0.50;74.85;98675.85;103529;1291;97933;-68
2022/11/19 11:30:10;;;;;;;31.20;17.20;;;;;;;-0.45;74.63;98676.41;103576;1299;111441;-67
2022/11/19 11:32:40;;;;;;;31.60;17.60;;;;;;;-0.45;74.83;98683.18;103633;1290;95169;-69
2022/11/19 11:35:34;;;;;;;31.70;16.70;;;;;;;-0.45;74.63;98683.39;103653;1296;107473;-67
2022/11/19 11:38:04;;;;;;;32.60;17.20;;;;;;;-0.43;74.56;98685.40;103632;1291;97828;-71
2022/11/19 11:40:31;;;;;;;31.80;17.10;;;;;;;-0.41;74.53;98687.77;103636;1295;95079;-70
2022/11/19 11:43:00;;;;;;;28.60;16.80;;;;;;;-0.39;74.37;98685.93;103619;1289;111780;-70
2022/11/19 11:45:36;;;;;;;33.30;18.90;;;;;;;-0.36;74.62;98684.81;103619;1297;97716;-67
2022/11/19 11:48:07;;;;;;;34.50;19.40;;;;;;;-0.35;74.60;98687.73;103571;1298;107084;-67
2022/11/19 11:50:36;;;;;;;34.80;19.30;;;;;;;-0.33;74.40;98693.23;103679;1294;98516;-68
2022/11/19 11:53:08;;;;;;;35.80;20.20;;;;;;;-0.32;74.13;98692.49;103654;1292;95461;-68
2022/11/19 11:55:38;;;;;;;34.50;18.70;;;;;;;-0.31;74.50;98691.95;103466;1292;111924;-68